Search for airport 
image banner adimage banner adimage banner ad
image banner ad

E16 - San Martin

Located in San Martin, United States

ICAO - E16, IATA -

Data provided by Airmate  

General information

Coordinates: N37°4'54" W121°35'49"
Elevation is 284 feet MSL.
Magnetic variation is 15° East
View others Airports in California

Operational data

Special qualification required
Current time UTC:
Current local time:
Weather at : KWVI - Watsonville Muni ( 24 km )
METAR: KWVI 240905Z AUTO 30003KT 10SM BKN018 13/11 A3001 RMK AO2 T01330111
View NOTAMs / SUP AIP / TFR affecting this airport [VIEW]
Communications frequencies: [VIEW]

Runways:

RWY identifierQFULength (ft)Width (ft)SurfaceLDA (ft)
14156°309575ASPH
32336°309575ASPH

Airport contact information

Address: San Martin United States

Other aviation service providers

Flight schools

Magnum Aviation, Inc.

Magnum Aviation, Inc.

Satellite view of E16